• Join FlightAware (Why Join?)
  • Login
  • US Flag 
03:53PM EDT


 

Airport Tracker/Info


-or-


 

Live Flight TrackerFlight Track Log ✈ SWA3408 ✈ 30-Apr-2013 ✈ KMDW - KIAD

Flight Track Log - Related Links

Times and Time Zones

All times are in EDT time to prevent confusion due to time zone crossing. See the SWA3408 flight status page for this flight to view local times or setup timezone preferences in your user account.

Time Position Orientation Groundspeed Altitude Reporting Facility
EDT Latitude Longitude Course Direction KTS MPH feet Rate Location/Type
07:38AM 41.7667 -87.7667 132° Southeast 129 148 2,000  Level Chicago TRACON
07:39AM 41.7333 -87.7167 132° Southeast 220 253 3,000 1,920 Climbing Chicago TRACON
07:40AM 41.7000 -87.6500 124° Southeast 269 310 5,900 1,320 Climbing Chicago TRACON
07:41AM 41.7133 -87.5083 83° East 308 354 6,000 540 Climbing Chicago Center
07:42AM 41.7261 -87.3969 81° East 306 352 7,100 2,340 Climbing Chicago Center
07:43AM 41.7389 -87.2833 81° East 310 357 10,800 3,480 Climbing Chicago Center
07:44AM 41.7508 -87.1622 82° East 327 376 14,300 3,240 Climbing Chicago Center
07:45AM 41.7642 -87.0375 82° East 336 387 17,500 2,880 Climbing Chicago Center
07:46AM 41.7642 -86.9075 90° East 345 397 20,300 2,340 Climbing Chicago Center
07:47AM 41.7631 -86.7567 91° East 392 451 22,300 2,400 Climbing Chicago Center
07:48AM 41.7542 -86.5975 94° East 425 489 25,300 2,940 Climbing Chicago Center
07:49AM 41.7461 -86.4092 93° East 426 490 28,400 2,220 Climbing Chicago Center
07:50AM 41.7397 -86.2467 93° East 432 497 29,900 1,680 Climbing Chicago Center
07:51AM 41.7317 -86.0775 94° East 449 517 31,900 2,220 Climbing Chicago Center
07:52AM 41.7244 -85.9119 93° East 449 517 34,500 2,040 Climbing Chicago Center
07:53AM 41.7169 -85.7503 94° East 438 504 36,100 1,500 Climbing Chicago Center
07:54AM 41.7100 -85.5861 93° East 441 507 37,700 1,200 Climbing Chicago Center
07:55AM 41.6983 -85.4014 95° East 442 509 38,600 600 Climbing Chicago Center
07:56AM 41.6922 -85.2358 93° East 468 539 39,000 180 Climbing Chicago Center
07:58AM 41.6825 -85.0633 94° East 470 541 39,000  Level Chicago Center
07:58AM 41.6753 -84.9289 94° East 458 527 39,000  Level Cleveland Center
07:59AM 41.6669 -84.7642 94° East 453 521 39,000 60 Level Cleveland Center
08:00AM 41.6561 -84.5967 95° East 448 516 39,200 540 Climbing Cleveland Center
08:01AM 41.5969 -84.4403 117° Southeast 448 516 40,100 900 Climbing Cleveland Center
08:02AM 41.5353 -84.2867 118° Southeast 453 521 41,000 420 Climbing Cleveland Center
08:03AM 41.4611 -84.1244 121° Southeast 469 540 41,000  Level Cleveland Center
08:04AM 41.3969 -83.9714 119° Southeast 469 540 41,000  Level Cleveland Center
08:05AM 41.3325 -83.8214 120° Southeast 469 540 41,000  Level Cleveland Center
08:06AM 41.2697 -83.6747 120° Southeast 469 540 41,000  Level Cleveland Center
08:07AM 41.2069 -83.5253 119° Southeast 469 540 41,000  Level Cleveland Center
08:08AM 41.1419 -83.3736 120° Southeast 469 540 41,000  Level Cleveland Center
08:09AM 41.0911 -83.2392 117° Southeast 475 547 41,000  Level Cleveland Center
08:10AM 41.0175 -83.0764 121° Southeast 470 541 41,000  Level Cleveland Center
08:11AM 40.9519 -82.9283 120° Southeast 470 541 41,000  Level Cleveland Center
08:12AM 40.8883 -82.7775 119° Southeast 475 547 41,000  Level Cleveland Center
08:14AM 40.7478 -82.4531 120° Southeast 476 548 41,000  Level Indianapolis Center
08:15AM 40.7036 -82.3578 121° Southeast 477 549 41,000  Level Cleveland Center
08:16AM 40.6372 -82.2056 120° Southeast 477 549 41,000  Level Cleveland Center
08:17AM 40.6144 -82.1519 119° Southeast 475 547 41,000  Level Indianapolis Center
08:17AM 40.5764 -82.0731 122° Southeast 477 549 41,000  Level Cleveland Center
08:18AM 40.5094 -81.9239 121° Southeast 477 549 41,000  Level Cleveland Center
08:19AM 40.4444 -81.7725 119° Southeast 477 549 41,000  Level Cleveland Center
08:20AM 40.3772 -81.6269 121° Southeast 472 543 41,000  Level Cleveland Center
08:21AM 40.3075 -81.4653 119° Southeast 472 543 41,000  Level Cleveland Center
08:22AM 40.2400 -81.3200 121° Southeast 472 543 41,000  Level Cleveland Center
08:23AM 40.1761 -81.1728 120° Southeast 472 543 41,000 -180 Level Cleveland Center
08:24AM 40.1081 -81.0283 122° Southeast 472 543 40,700 -600 Descending Cleveland Center
08:25AM 40.0397 -80.8814 121° Southeast 472 543 39,800 -900 Descending Cleveland Center
08:26AM 39.9733 -80.7347 121° Southeast 472 543 39,000 -420 Descending Cleveland Center
08:27AM 39.9044 -80.5911 122° Southeast 472 543 39,000  Level Cleveland Center
08:28AM 39.8358 -80.4453 121° Southeast 478 550 39,000  Level Cleveland Center
08:29AM 39.7686 -80.3022 121° Southeast 478 550 39,000 -1,500 Level Cleveland Center
08:32AM 39.6092 -79.9661 122° Southeast 478 550 33,900 -2,340 Descending Washington Center
08:33AM 39.5522 -79.8147 116° Southeast 473 544 31,000 -2,640 Descending Washington Center
08:34AM 39.5222 -79.6542 104° East 456 525 28,600 -2,160 Descending Washington Center
08:35AM 39.4961 -79.4994 102° East 449 517 26,700 -1,500 Descending Washington Center
08:36AM 39.4656 -79.3444 104° East 438 504 25,600 -1,080 Descending Washington Center
08:37AM 39.4353 -79.1789 103° East 438 504 24,600 -1,200 Descending Washington Center
08:38AM 39.4136 -79.0597 103° East 433 498 23,300 -1,980 Descending Washington Center
08:39AM 39.3831 -78.8917 103° East 422 486 20,700 -2,400 Descending Washington Center
08:40AM 39.3575 -78.7561 104° East 398 458 18,500 -2,160 Descending Washington Center
08:41AM 39.3358 -78.6239 102° East 383 441 16,500 -2,100 Descending Washington Center
08:42AM 39.3119 -78.4967 104° East 376 433 14,400 -2,100 Descending Washington Center
08:43AM 39.2878 -78.3725 104° East 365 420 12,400 -1,620 Descending Washington Center
08:44AM 39.2358 -78.2686 123° Southeast 346 398 11,200 -1,200 Descending Washington Center
08:45AM 39.1839 -78.1703 124° Southeast 341 392 10,000 -600 Descending Washington Center
08:46AM 39.1317 -78.0747 125° Southeast 336 387 10,000 -60 Level Washington Center
08:47AM 39.0814 -77.9794 124° Southeast 329 379 9,900 -660 Descending Washington Center
08:48AM 39.0333 -77.8897 125° Southeast 318 366 8,800 -1,200 Descending Washington Center
08:49AM 38.9950 -77.8136 123° Southeast 294 338 7,600 -1,140 Descending Washington Center
08:50AM 38.9614 -77.7167 114° Southeast 276 318 6,500 -780 Descending Washington Center
08:51AM 38.9333 -77.6167 110° East 274 315 6,000 -300 Descending Potomac TRACON
08:52AM 38.8667 -77.5833 159° South 269 310 5,900 -420 Descending Potomac TRACON
08:53AM 38.8000 -77.5833 180° South 256 295 5,300 -960 Descending Potomac TRACON
08:54AM 38.7333 -77.5667 169° South 244 281 4,000 -1,200 Descending Potomac TRACON
08:55AM 38.7333 -77.4833 90° East 230 265 3,000 -540 Descending Potomac TRACON
08:56AM 38.7833 -77.4667 15° North 212 244 3,000 -360 Level Potomac TRACON
08:57AM 38.8333 -77.4667 360° North 183 211 2,300 -780 Descending Potomac TRACON
08:57AM 38.8667 -77.4667 360° North 140 161 1,600 -780 Descending Potomac TRACON
08:58AM 38.9167 -77.4667 360° North 133 153 900 -720 Descending Potomac TRACON
09:00AM 38.9333 -77.4500 165° South  Level FlightAware Approximate
09:07AM 38.9474 -77.4599 165° South  Level Estimated